Time;durP1;ratioP1;P1;durP2;ratioP2;P2;SDS_P1;SDS_P2;PMS_P1;PMS_P2;Temp;Humidity;BMP_temperature;BMP_pressure;BME280_temperature;BME280_humidity;BME280_pressure;Samples;Min_cycle;Max_cycle;Signal;HPM_P1;HPM_P2
2022/09/12 00:00:25;;;;;;;11.40;6.00;;;;;;;11.14;61.16;99319.72;4897866;29;20581;-61
2022/09/12 00:02:54;;;;;;;10.15;5.43;;;;;;;11.06;61.48;99317.47;4897582;29;20044;-61
2022/09/12 00:05:21;;;;;;;8.82;5.82;;;;;;;11.12;61.75;99326.31;4899171;29;20419;-60
2022/09/12 00:07:46;;;;;;;11.80;5.93;;;;;;;11.14;62.30;99325.00;4897820;29;20052;-61
2022/09/12 00:10:12;;;;;;;9.60;6.15;;;;;;;11.11;63.11;99322.84;4898965;29;20048;-62
2022/09/12 00:12:38;;;;;;;10.38;6.18;;;;;;;11.07;63.40;99327.03;4898744;29;20045;-61
2022/09/12 00:15:05;;;;;;;9.15;6.10;;;;;;;11.00;64.18;99315.78;4898999;29;20044;-61
2022/09/12 00:17:33;;;;;;;8.35;5.80;;;;;;;11.01;64.98;99317.41;4898566;29;20099;-61
2022/09/12 00:19:59;;;;;;;10.80;6.25;;;;;;;10.98;64.62;99315.22;4898835;29;20151;-60
2022/09/12 00:22:24;;;;;;;9.13;6.10;;;;;;;10.98;64.62;99309.13;4928832;29;20609;-61
2022/09/12 00:24:50;;;;;;;10.07;5.93;;;;;;;10.97;64.07;99312.81;4898794;29;20052;-61
2022/09/12 00:27:16;;;;;;;10.10;6.28;;;;;;;10.98;64.96;99317.09;4898456;29;20045;-60
2022/09/12 00:29:41;;;;;;;18.15;8.50;;;;;;;10.98;65.58;99309.94;4898926;29;20049;-61
2022/09/12 00:32:07;;;;;;;16.00;8.30;;;;;;;10.95;65.83;99322.88;4898118;29;20127;-60
2022/09/12 00:34:35;;;;;;;10.50;6.40;;;;;;;10.90;65.29;99313.78;4898893;29;20052;-60
2022/09/12 00:37:00;;;;;;;12.35;6.40;;;;;;;10.90;66.17;99313.78;4898555;29;20115;-60
2022/09/12 00:39:26;;;;;;;10.35;6.90;;;;;;;10.90;66.98;99312.97;4897341;29;20140;-59
2022/09/12 00:41:53;;;;;;;12.73;7.10;;;;;;;10.89;67.10;99306.06;4898351;29;20055;-61
2022/09/12 00:44:21;;;;;;;11.30;6.75;;;;;;;10.90;67.87;99303.16;4898416;29;20123;-61
2022/09/12 00:46:56;;;;;;;8.55;6.05;;;;;;;10.89;67.15;99298.91;4898445;29;20047;-62
2022/09/12 00:49:49;;;;;;;9.93;6.20;;;;;;;10.87;67.04;99294.88;4881699;29;20091;-61
2022/09/12 00:52:26;;;;;;;13.50;6.50;;;;;;;10.88;67.52;99293.84;4898239;29;20116;-61
2022/09/12 00:55:07;;;;;;;9.20;6.00;;;;;;;10.88;68.15;99296.50;4928647;29;20151;-61
2022/09/12 00:57:37;;;;;;;10.70;6.25;;;;;;;10.87;67.78;99298.34;4881906;29;20525;-60
2022/09/12 01:00:15;;;;;;;11.95;7.57;;;;;;;10.86;67.57;99294.09;4899067;29;20156;-61
2022/09/12 01:02:41;;;;;;;9.65;6.68;;;;;;;10.86;68.03;99293.28;4899497;29;20053;-60
2022/09/12 01:05:08;;;;;;;11.93;6.93;;;;;;;10.77;68.13;99298.19;4898888;29;20562;-61
2022/09/12 01:07:37;;;;;;;11.75;6.90;;;;;;;10.75;68.19;99289.66;4896971;29;20048;-61
2022/09/12 01:10:05;;;;;;;12.57;6.95;;;;;;;10.74;69.14;99285.41;4897765;29;20119;-61
2022/09/12 01:12:33;;;;;;;13.00;6.68;;;;;;;10.75;69.12;99280.91;4896400;29;20045;-61
2022/09/12 01:14:59;;;;;;;10.95;6.95;;;;;;;10.76;68.53;99283.31;4896468;29;20084;-60
2022/09/12 01:17:36;;;;;;;10.68;6.95;;;;;;;10.74;68.18;99280.13;4898052;29;20036;-61
2022/09/12 01:20:32;;;;;;;19.17;13.05;;;;;;;10.74;69.21;99284.63;4881010;29;20059;-61
2022/09/12 01:22:57;;;;;;;23.45;13.35;;;;;;;10.72;68.47;99282.19;4897484;29;20543;-61
2022/09/12 01:26:14;;;;;;;11.73;7.82;;;;;;;10.72;68.60;99273.44;4897552;29;20040;-62
2022/09/12 01:29:18;;;;;;;11.48;8.05;;;;;;;10.70;69.50;99276.31;4897648;29;20075;-61
2022/09/12 01:31:50;;;;;;;11.68;8.00;;;;;;;10.68;69.91;99283.72;4896306;29;20094;-61
2022/09/12 01:34:34;;;;;;;16.27;9.43;;;;;;;10.66;70.25;99273.34;4897706;29;20048;-61
2022/09/12 01:37:25;;;;;;;13.52;7.95;;;;;;;10.67;70.01;99274.94;4896264;29;20052;-61
2022/09/12 01:39:53;;;;;;;11.32;7.68;;;;;;;10.64;70.12;99275.44;4896423;29;20087;-62
2022/09/12 01:42:57;;;;;;;10.93;7.40;;;;;;;10.62;69.86;99279.41;4896711;29;20080;-62
2022/09/12 01:45:27;;;;;;;12.65;8.45;;;;;;;10.62;70.08;99279.41;4897267;29;20647;-61
2022/09/12 01:48:39;;;;;;;16.73;7.72;;;;;;;10.61;70.49;99278.56;4880289;29;20049;-62
2022/09/12 01:51:11;;;;;;;11.02;7.55;;;;;;;10.59;70.84;99272.72;4886958;29;20067;-61
2022/09/12 01:53:42;;;;;;;11.10;7.57;;;;;;;10.58;70.67;99273.75;4895961;29;20534;-61
2022/09/12 01:56:13;;;;;;;12.48;7.88;;;;;;;10.58;70.48;99281.69;4897069;29;20040;-61
2022/09/12 01:58:50;;;;;;;11.82;8.02;;;;;;;10.56;70.50;99280.31;4897358;29;20123;-60
2022/09/12 02:01:20;;;;;;;14.20;7.68;;;;;;;10.54;71.04;99277.94;4911796;29;20044;-61
2022/09/12 02:04:02;;;;;;;14.65;8.57;;;;;;;10.46;71.93;99281.75;4895905;29;20696;-60
2022/09/12 02:06:36;;;;;;;12.65;8.15;;;;;;;10.40;73.09;99277.41;4896833;29;20557;-61
2022/09/12 02:09:12;;;;;;;13.27;8.05;;;;;;;10.33;73.14;99273.34;4880315;29;20036;-61
2022/09/12 02:11:40;;;;;;;16.25;9.68;;;;;;;10.29;74.02;99278.28;4896692;29;20399;-61
2022/09/12 02:14:23;;;;;;;19.63;9.95;;;;;;;10.28;74.36;99274.03;4864611;29;20462;-62
2022/09/12 02:16:54;;;;;;;16.75;9.07;;;;;;;10.23;74.45;99279.19;4911358;29;20415;-61
2022/09/12 02:19:25;;;;;;;14.45;8.82;;;;;;;10.23;74.42;99276.56;4911427;29;20466;-62
2022/09/12 02:21:54;;;;;;;14.02;8.13;;;;;;;10.24;75.21;99273.69;4895471;29;20041;-61
2022/09/12 02:24:22;;;;;;;12.20;8.38;;;;;;;10.16;74.85;99275.91;4898203;29;20071;-62
2022/09/12 02:27:05;;;;;;;19.77;11.57;;;;;;;10.13;75.27;99263.13;4880873;29;20052;-62
2022/09/12 02:29:31;;;;;;;14.32;8.77;;;;;;;10.15;75.60;99275.09;4897328;29;20048;-62
2022/09/12 02:32:05;;;;;;;12.70;8.23;;;;;;;10.17;75.49;99267.69;4866217;29;20047;-62
2022/09/12 02:34:49;;;;;;;12.52;8.40;;;;;;;10.18;75.95;99274.63;4898014;29;20080;-62
2022/09/12 02:37:24;;;;;;;13.10;7.97;;;;;;;10.17;75.74;99265.06;4896549;29;20049;-62
2022/09/12 02:39:54;;;;;;;15.93;8.55;;;;;;;10.15;74.98;99264.50;4895141;29;20071;-62
2022/09/12 02:42:21;;;;;;;14.20;8.93;;;;;;;10.15;74.47;99272.47;4896485;29;20040;-61
2022/09/12 02:44:46;;;;;;;14.85;8.70;;;;;;;10.12;75.19;99269.47;4895141;29;20435;-61
2022/09/12 02:47:23;;;;;;;13.40;8.23;;;;;;;10.08;75.17;99268.34;4896469;29;20052;-61
2022/09/12 02:49:49;;;;;;;15.15;8.77;;;;;;;10.08;74.45;99270.97;4879408;29;20426;-62
2022/09/12 02:52:15;;;;;;;13.48;8.20;;;;;;;10.08;74.41;99265.69;4896100;29;20045;-61
2022/09/12 02:54:41;;;;;;;14.02;8.45;;;;;;;10.04;74.91;99268.00;4894990;29;20044;-61
2022/09/12 02:57:19;;;;;;;19.23;9.25;;;;;;;10.01;75.21;99265.84;4910692;29;20052;-62
2022/09/12 02:59:45;;;;;;;20.95;9.27;;;;;;;9.95;74.38;99267.56;4896516;29;20422;-61
2022/09/12 03:02:11;;;;;;;21.25;12.32;;;;;;;9.92;74.31;99269.91;4896091;29;20044;-61
2022/09/12 03:04:53;;;;;;;18.60;11.07;;;;;;;9.93;75.47;99260.91;4910755;29;20553;-61
2022/09/12 03:07:36;;;;;;;18.05;10.25;;;;;;;9.91;75.04;99257.69;4895042;29;20077;-62
2022/09/12 03:10:23;;;;;;;23.67;10.00;;;;;;;9.86;75.39;99262.91;4894965;29;20055;-61
2022/09/12 03:13:27;;;;;;;22.75;11.07;;;;;;;9.82;76.40;99267.03;4894967;29;20174;-61
2022/09/12 03:16:02;;;;;;;19.60;10.15;;;;;;;9.76;76.00;99264.31;4875189;29;20068;-61
2022/09/12 03:18:34;;;;;;;18.40;9.23;;;;;;;9.71;76.46;99264.22;4844314;29;20051;-61
2022/09/12 03:21:11;;;;;;;16.73;9.88;;;;;;;9.69;76.43;99271.56;4878511;29;20060;-62
2022/09/12 03:23:53;;;;;;;14.55;9.55;;;;;;;9.68;77.03;99269.16;4896367;29;20521;-62
2022/09/12 03:26:27;;;;;;;17.75;9.32;;;;;;;9.63;76.57;99274.34;4895993;29;20108;-62
2022/09/12 03:28:53;;;;;;;18.00;9.23;;;;;;;9.61;76.97;99263.19;4896312;29;20127;-61
2022/09/12 03:31:19;;;;;;;20.80;10.57;;;;;;;9.60;77.67;99274.81;4894650;29;20136;-61
2022/09/12 03:33:45;;;;;;;13.30;9.80;;;;;;;9.60;77.48;99272.16;4894947;29;20053;-60
2022/09/12 03:36:24;;;;;;;16.80;10.05;;;;;;;9.60;77.79;99280.09;4895946;29;20057;-62
2022/09/12 03:38:50;;;;;;;18.13;9.97;;;;;;;9.62;77.44;99278.00;4896299;29;20155;-61
2022/09/12 03:41:17;;;;;;;17.92;10.00;;;;;;;9.61;77.37;99277.22;4894549;29;20065;-61
2022/09/12 03:43:43;;;;;;;17.27;10.68;;;;;;;9.61;78.10;99271.91;4895760;29;20100;-62
2022/09/12 03:46:09;;;;;;;18.15;10.80;;;;;;;9.63;77.75;99277.00;4896092;29;20430;-61
2022/09/12 03:48:34;;;;;;;19.70;10.65;;;;;;;9.61;77.80;99279.88;4896141;29;20053;-61
2022/09/12 03:51:05;;;;;;;27.38;14.88;;;;;;;9.60;77.47;99280.91;4894546;29;20497;-62
2022/09/12 03:53:31;;;;;;;17.50;11.38;;;;;;;9.59;77.91;99271.38;4926079;29;20044;-61
2022/09/12 03:55:57;;;;;;;18.25;11.32;;;;;;;9.59;77.41;99276.66;4896020;29;20057;-61
2022/09/12 03:58:24;;;;;;;18.40;11.00;;;;;;;9.62;77.51;99275.38;4894503;29;20124;-61
2022/09/12 04:00:50;;;;;;;19.05;10.77;;;;;;;9.61;78.33;99271.91;4895955;29;20045;-61
2022/09/12 04:03:18;;;;;;;20.05;11.90;;;;;;;9.57;77.89;99272.63;4895874;29;20055;-62
2022/09/12 04:05:43;;;;;;;17.33;11.63;;;;;;;9.63;77.68;99274.34;4896442;29;20425;-60
2022/09/12 04:08:09;;;;;;;21.80;12.30;;;;;;;9.63;78.16;99275.16;4899281;29;20048;-62
2022/09/12 04:10:35;;;;;;;20.27;12.25;;;;;;;9.62;77.94;99281.50;4899040;29;20056;-62
2022/09/12 04:13:00;;;;;;;19.75;12.55;;;;;;;9.61;78.48;99279.06;4897662;29;20049;-60
2022/09/12 04:15:26;;;;;;;22.40;12.82;;;;;;;9.61;78.64;99279.88;4899235;29;20422;-60
2022/09/12 04:17:52;;;;;;;20.70;12.38;;;;;;;9.60;78.45;99280.09;4899084;29;20141;-60
2022/09/12 04:20:18;;;;;;;21.20;12.95;;;;;;;9.61;78.44;99287.00;4897566;29;20037;-61
2022/09/12 04:22:43;;;;;;;23.10;13.43;;;;;;;9.60;78.63;99288.06;4897861;29;20041;-61
2022/09/12 04:25:10;;;;;;;21.67;13.48;;;;;;;9.62;79.41;99281.50;4898875;29;20426;-61
2022/09/12 04:27:36;;;;;;;23.67;13.15;;;;;;;9.59;78.81;99276.66;4898961;29;20051;-60
2022/09/12 04:30:02;;;;;;;21.75;12.82;;;;;;;9.62;78.59;99278.00;4898917;29;20048;-64
2022/09/12 04:32:30;;;;;;;22.38;13.02;;;;;;;9.59;78.49;99283.78;4898830;29;20446;-63
2022/09/12 04:34:56;;;;;;;22.13;13.52;;;;;;;9.61;78.46;99277.22;4898983;29;20048;-61
2022/09/12 04:37:23;;;;;;;22.65;13.50;;;;;;;9.64;79.07;99274.09;4897634;29;20068;-59
2022/09/12 04:39:49;;;;;;;25.05;14.63;;;;;;;9.64;78.41;99274.09;4899107;29;20144;-60
2022/09/12 04:42:15;;;;;;;22.10;13.52;;;;;;;9.64;78.39;99275.94;4898871;29;20494;-61
2022/09/12 04:44:41;;;;;;;21.35;13.20;;;;;;;9.60;78.44;99280.09;4898448;29;20192;-62
2022/09/12 04:47:07;;;;;;;26.75;13.65;;;;;;;9.58;78.95;99282.97;4881551;29;20064;-62
2022/09/12 04:49:32;;;;;;;24.17;13.55;;;;;;;9.51;79.31;99275.16;4897320;29;20056;-60
2022/09/12 04:51:58;;;;;;;22.90;14.40;;;;;;;9.47;79.49;99274.03;4898500;29;20050;-60
2022/09/12 04:54:24;;;;;;;19.15;12.70;;;;;;;9.41;79.37;99274.16;4898257;29;20502;-61
2022/09/12 04:56:51;;;;;;;20.83;14.07;;;;;;;9.33;80.08;99273.47;4898498;29;20048;-61
2022/09/12 04:59:18;;;;;;;22.13;13.35;;;;;;;9.33;80.07;99270.03;4898652;29;20072;-60
2022/09/12 05:01:44;;;;;;;26.58;14.85;;;;;;;9.33;79.64;99268.19;4894252;29;20048;-59
2022/09/12 05:04:11;;;;;;;23.20;12.82;;;;;;;9.30;79.42;99276.59;4893031;29;20593;-61
2022/09/12 05:06:39;;;;;;;28.58;14.63;;;;;;;9.33;80.35;99288.56;4898230;29;20080;-64
2022/09/12 05:09:07;;;;;;;24.02;14.57;;;;;;;9.39;80.12;99289.47;4898082;29;20052;-60
2022/09/12 05:11:35;;;;;;;23.90;14.02;;;;;;;9.35;79.83;99285.66;4898098;29;20044;-61
2022/09/12 05:14:01;;;;;;;23.45;14.45;;;;;;;9.35;80.04;99278.53;4897871;29;20048;-60
2022/09/12 05:16:27;;;;;;;19.73;13.38;;;;;;;9.44;80.22;99289.56;4897902;29;20072;-62
2022/09/12 05:18:55;;;;;;;23.48;13.68;;;;;;;9.46;79.36;99282.19;4897069;29;20116;-61
2022/09/12 05:21:22;;;;;;;25.45;13.88;;;;;;;9.48;79.17;99288.06;4897825;29;20049;-61
2022/09/12 05:23:58;;;;;;;22.55;13.18;;;;;;;9.47;79.90;99279.34;4897785;29;20059;-61
2022/09/12 05:26:24;;;;;;;23.83;15.07;;;;;;;9.49;79.40;99293.13;4897922;29;20037;-60
2022/09/12 05:28:52;;;;;;;21.13;15.50;;;;;;;9.52;79.07;99286.56;4898007;29;20479;-60
2022/09/12 05:31:26;;;;;;;21.10;15.02;;;;;;;9.63;78.98;99283.09;4896243;29;20076;-62
2022/09/12 05:33:53;;;;;;;23.20;13.18;;;;;;;9.66;80.10;99284.47;4898034;29;20045;-61
2022/09/12 05:36:21;;;;;;;18.92;13.52;;;;;;;9.72;78.38;99284.34;4897783;29;20045;-61
2022/09/12 05:38:47;;;;;;;19.70;14.15;;;;;;;9.75;79.72;99291.00;4896416;29;20395;-63
2022/09/12 05:41:14;;;;;;;20.98;12.80;;;;;;;9.77;78.89;99284.44;4897695;29;20041;-62
2022/09/12 05:43:41;;;;;;;22.10;14.23;;;;;;;9.77;79.05;99283.66;4896178;29;20106;-61
2022/09/12 05:46:09;;;;;;;22.13;13.77;;;;;;;9.85;78.34;99285.09;4896960;29;20041;-62
2022/09/12 05:48:36;;;;;;;20.58;14.35;;;;;;;9.82;79.00;99277.63;4922894;29;20048;-61
2022/09/12 05:51:05;;;;;;;24.77;15.25;;;;;;;9.90;78.01;99279.91;4895559;29;20455;-62
2022/09/12 05:53:31;;;;;;;24.75;17.02;;;;;;;9.90;78.45;99275.41;4896170;29;20055;-61
2022/09/12 05:56:04;;;;;;;25.90;17.10;;;;;;;9.89;78.94;99279.13;4896302;29;20044;-63
2022/09/12 05:58:30;;;;;;;25.02;17.17;;;;;;;9.89;78.46;99268.53;4879005;29;20400;-61
2022/09/12 06:01:01;;;;;;;21.15;16.42;;;;;;;10.01;78.01;99271.13;4896612;29;20049;-60
2022/09/12 06:03:27;;;;;;;23.42;15.77;;;;;;;10.11;78.04;99283.75;4895480;29;20048;-62
2022/09/12 06:05:53;;;;;;;22.20;16.20;;;;;;;10.15;77.54;99279.59;4896286;29;20056;-61
2022/09/12 06:08:19;;;;;;;27.48;15.98;;;;;;;10.13;78.05;99279.81;4895270;29;20088;-62
2022/09/12 06:10:44;;;;;;;21.52;14.10;;;;;;;10.09;77.56;99280.53;4895144;29;20068;-62
2022/09/12 06:13:10;;;;;;;21.25;14.35;;;;;;;10.08;77.90;99285.03;4895653;29;20120;-61
2022/09/12 06:15:36;;;;;;;18.80;12.68;;;;;;;10.06;78.14;99276.53;4895789;29;20161;-60
2022/09/12 06:18:02;;;;;;;16.60;12.18;;;;;;;10.08;78.36;99273.63;4895943;29;20049;-61
2022/09/12 06:20:27;;;;;;;17.50;11.77;;;;;;;10.17;77.28;99282.81;4879040;29;20044;-60
2022/09/12 06:22:53;;;;;;;19.67;12.15;;;;;;;10.21;78.21;99287.41;4879208;29;20112;-61
2022/09/12 06:25:19;;;;;;;17.90;11.75;;;;;;;10.28;78.22;99286.47;4896146;29;20096;-59
2022/09/12 06:27:46;;;;;;;15.38;10.77;;;;;;;10.35;77.22;99285.31;4896552;29;20048;-61
2022/09/12 06:30:12;;;;;;;21.08;11.73;;;;;;;10.38;76.93;99282.19;4894546;29;20498;-61
2022/09/12 06:32:38;;;;;;;18.65;12.27;;;;;;;10.40;77.12;99269.47;4895609;29;20135;-61
2022/09/12 06:35:04;;;;;;;18.25;12.48;;;;;;;10.42;77.12;99277.19;4895240;29;20139;-61
2022/09/12 06:37:31;;;;;;;18.10;10.80;;;;;;;10.43;76.97;99268.19;4894912;29;20128;-60
2022/09/12 06:39:57;;;;;;;17.95;12.93;;;;;;;10.48;77.56;99270.13;4894774;29;20044;-62
2022/09/12 06:42:22;;;;;;;17.15;11.25;;;;;;;10.58;75.99;99262.34;4879149;29;20059;-60
2022/09/12 06:44:55;;;;;;;18.08;11.43;;;;;;;10.71;76.67;99266.50;4879012;29;20060;-62
2022/09/12 06:47:21;;;;;;;14.25;11.02;;;;;;;10.75;75.86;99270.31;4895448;29;20410;-63
2022/09/12 06:49:46;;;;;;;18.27;11.38;;;;;;;10.85;75.69;99275.75;4895445;29;20518;-61
2022/09/12 06:52:12;;;;;;;15.55;11.70;;;;;;;10.84;76.22;99271.50;4895906;29;20127;-61
2022/09/12 06:54:38;;;;;;;17.27;10.25;;;;;;;10.87;75.67;99273.69;4895767;29;20135;-61
2022/09/12 06:57:04;;;;;;;16.88;12.15;;;;;;;10.95;75.38;99280.44;4910945;29;20048;-61
2022/09/12 06:59:30;;;;;;;13.07;9.50;;;;;;;11.03;74.94;99278.19;4894584;29;20601;-62
2022/09/12 07:01:55;;;;;;;13.07;10.45;;;;;;;11.06;75.31;99279.53;4894932;29;20055;-61
2022/09/12 07:04:21;;;;;;;13.55;9.70;;;;;;;11.09;75.38;99284.38;4895535;29;20140;-61
2022/09/12 07:06:47;;;;;;;14.23;9.55;;;;;;;11.13;75.68;99286.28;4895417;29;20092;-59
2022/09/12 07:09:17;;;;;;;15.73;9.85;;;;;;;11.11;75.14;99283.06;4894827;29;20100;-62
2022/09/12 07:11:43;;;;;;;13.15;9.07;;;;;;;11.14;75.42;99287.06;4894217;29;20506;-61
2022/09/12 07:14:11;;;;;;;14.68;10.88;;;;;;;11.18;74.84;99293.50;4895468;29;20045;-61
2022/09/12 07:16:37;;;;;;;14.48;9.27;;;;;;;11.25;74.46;99285.38;4896193;29;20128;-60
2022/09/12 07:19:04;;;;;;;16.48;9.73;;;;;;;11.38;74.48;99290.31;4895359;29;20506;-60
2022/09/12 07:21:30;;;;;;;12.02;7.45;;;;;;;11.39;73.50;99283.19;4895042;29;20053;-60
2022/09/12 07:23:59;;;;;;;12.13;8.45;;;;;;;11.37;72.99;99273.59;4894796;29;20096;-58
2022/09/12 07:26:26;;;;;;;11.30;7.55;;;;;;;11.45;72.67;99282.22;4895316;29;20130;-59
2022/09/12 07:28:53;;;;;;;12.00;7.38;;;;;;;11.43;72.53;99277.13;4895036;29;20053;-59
2022/09/12 07:31:22;;;;;;;12.05;7.50;;;;;;;11.57;71.90;99274.94;4892815;29;20083;-61
2022/09/12 07:33:49;;;;;;;11.63;8.80;;;;;;;11.68;72.21;99284.63;4895229;29;20053;-59
2022/09/12 07:36:17;;;;;;;12.02;7.68;;;;;;;11.70;71.59;99284.38;4895864;29;20463;-58
2022/09/12 07:38:42;;;;;;;12.30;8.10;;;;;;;11.86;71.51;99288.84;4878184;29;20131;-60
2022/09/12 07:41:18;;;;;;;13.65;7.22;;;;;;;11.98;71.28;99281.56;4889123;29;20227;-61
2022/09/12 07:43:44;;;;;;;9.27;7.18;;;;;;;12.14;70.39;99292.34;4887055;29;20037;-61
2022/09/12 07:46:10;;;;;;;14.18;7.95;;;;;;;12.05;70.81;99287.47;4884468;29;20048;-61
2022/09/12 07:48:36;;;;;;;11.65;8.25;;;;;;;12.09;70.53;99298.41;4880188;29;20546;-61
2022/09/12 07:51:05;;;;;;;12.05;7.90;;;;;;;12.18;69.57;99302.22;4862820;29;20128;-60
2022/09/12 07:53:33;;;;;;;13.82;7.97;;;;;;;12.34;69.59;99297.06;4879713;29;20392;-61
2022/09/12 07:55:59;;;;;;;13.70;8.68;;;;;;;12.40;69.17;99298.72;4880040;29;20256;-60
2022/09/12 07:58:25;;;;;;;10.23;7.65;;;;;;;12.56;69.30;99295.16;4878470;29;20487;-61
2022/09/12 08:00:51;;;;;;;12.25;8.23;;;;;;;12.71;68.39;99300.59;4880213;29;20059;-60
2022/09/12 08:03:17;;;;;;;12.43;7.88;;;;;;;12.75;67.97;99298.22;4878772;29;20045;-60
2022/09/12 08:05:43;;;;;;;12.90;7.20;;;;;;;12.68;67.24;99305.63;4879868;29;20045;-61
2022/09/12 08:08:09;;;;;;;12.90;7.00;;;;;;;12.61;67.39;99295.19;4879707;29;20072;-61
2022/09/12 08:10:35;;;;;;;10.10;7.10;;;;;;;12.66;67.16;99291.78;4878666;29;20056;-61
2022/09/12 08:13:02;;;;;;;9.68;7.22;;;;;;;12.71;66.90;99302.47;4878575;29;20049;-60
2022/09/12 08:15:28;;;;;;;10.93;7.07;;;;;;;12.77;66.81;99298.00;4878987;29;20048;-59
2022/09/12 08:17:54;;;;;;;9.48;7.20;;;;;;;12.70;66.91;99301.63;4880100;29;20072;-60
2022/09/12 08:20:20;;;;;;;10.23;7.13;;;;;;;12.61;66.83;99299.69;4878583;29;20463;-61
2022/09/12 08:22:45;;;;;;;10.82;7.03;;;;;;;12.42;67.25;99299.28;4879491;29;20049;-61
2022/09/12 08:25:11;;;;;;;11.80;7.00;;;;;;;12.35;66.92;99296.00;4879340;29;20037;-60
2022/09/12 08:27:38;;;;;;;10.10;7.00;;;;;;;12.32;67.20;99296.50;4879259;29;20072;-59
2022/09/12 08:30:05;;;;;;;7.82;6.60;;;;;;;12.26;67.29;99304.44;4879084;29;20144;-59
2022/09/12 08:32:33;;;;;;;10.88;6.97;;;;;;;12.21;67.37;99309.69;4878103;29;20053;-60
2022/09/12 08:34:58;;;;;;;10.75;7.07;;;;;;;12.11;67.78;99309.56;4878630;29;20041;-60
2022/09/12 08:37:24;;;;;;;11.98;8.00;;;;;;;12.20;67.84;99302.75;4878193;29;20045;-60
2022/09/12 08:39:51;;;;;;;12.05;8.20;;;;;;;12.24;67.89;99306.53;4878750;29;20060;-62
2022/09/12 08:42:52;;;;;;;13.98;8.80;;;;;;;12.17;68.07;99303.25;4877851;29;20049;-60
2022/09/12 08:45:43;;;;;;;14.52;9.00;;;;;;;12.23;68.08;99299.59;4882573;29;20522;-61
2022/09/12 08:48:10;;;;;;;16.73;8.93;;;;;;;12.26;67.99;99299.13;4878431;29;20177;-61
2022/09/12 08:50:36;;;;;;;15.13;9.57;;;;;;;12.24;67.50;99303.09;4861639;29;20045;-61
2022/09/12 08:53:11;;;;;;;14.70;9.80;;;;;;;12.20;67.51;99294.00;4877459;29;20045;-60
2022/09/12 08:55:40;;;;;;;15.70;9.57;;;;;;;12.14;67.80;99297.66;4879697;29;20096;-60
2022/09/12 08:58:26;;;;;;;15.20;9.60;;;;;;;12.25;66.99;99292.19;4878087;29;20092;-61
2022/09/12 09:01:09;;;;;;;17.77;10.07;;;;;;;12.26;66.80;99293.81;4877335;29;20045;-61
2022/09/12 09:03:46;;;;;;;16.65;10.25;;;;;;;12.26;66.12;99307.09;4877719;29;20140;-60
2022/09/12 09:06:18;;;;;;;19.63;11.23;;;;;;;12.17;66.94;99303.25;4877448;29;20105;-60
2022/09/12 09:08:50;;;;;;;19.75;11.25;;;;;;;12.13;66.94;99291.53;4879389;29;20045;-61
2022/09/12 09:11:32;;;;;;;17.40;10.95;;;;;;;12.29;66.70;99295.16;4878793;29;20045;-60
2022/09/12 09:17:03;;;;;;;18.45;12.02;;;;;;;12.46;66.39;99298.50;4863721;29;20498;-60
2022/09/12 09:19:37;;;;;;;21.85;12.95;;;;;;;12.57;66.35;99295.97;4877761;29;20136;-60
2022/09/12 09:22:07;;;;;;;21.38;12.57;;;;;;;12.63;65.92;99306.38;4878258;29;20507;-61
2022/09/12 09:24:38;;;;;;;20.83;12.85;;;;;;;12.54;65.67;99296.47;4861613;29;20060;-60
2022/09/12 09:27:09;;;;;;;24.25;14.48;;;;;;;12.63;65.98;99297.59;4878751;29;20041;-59
2022/09/12 09:29:47;;;;;;;21.48;14.18;;;;;;;12.68;64.96;99305.63;4878774;29;20125;-62
2022/09/12 09:32:18;;;;;;;26.15;13.55;;;;;;;12.60;64.92;99303.44;4874610;29;20187;-59
2022/09/12 09:34:44;;;;;;;21.08;13.43;;;;;;;12.60;65.02;99308.75;4876467;29;20132;-61
2022/09/12 09:37:31;;;;;;;21.50;14.27;;;;;;;12.59;65.09;99304.47;4878638;29;20495;-61
2022/09/12 09:40:18;;;;;;;22.45;14.27;;;;;;;12.66;64.78;99300.56;4861675;29;20049;-61
2022/09/12 09:42:54;;;;;;;23.63;14.68;;;;;;;12.73;64.37;99311.81;4878285;29;20418;-59
2022/09/12 09:45:23;;;;;;;23.23;15.23;;;;;;;12.71;64.32;99297.94;4878154;29;20065;-60
2022/09/12 09:48:24;;;;;;;23.77;14.13;;;;;;;12.62;64.27;99301.31;4876983;29;20049;-59
2022/09/12 09:50:50;;;;;;;24.20;14.45;;;;;;;12.49;64.19;99295.34;4856425;29;20533;-61
2022/09/12 09:53:33;;;;;;;26.92;14.68;;;;;;;12.56;64.43;99300.47;4876501;29;20053;-61
2022/09/12 09:56:02;;;;;;;27.88;15.48;;;;;;;12.73;64.04;99303.00;4878464;29;20052;-61
2022/09/12 09:58:33;;;;;;;23.98;14.90;;;;;;;12.81;63.66;99302.53;4876707;29;20124;-61
2022/09/12 10:01:13;;;;;;;27.75;14.82;;;;;;;12.95;62.83;99303.72;4878129;29;20330;-63
2022/09/12 10:03:39;;;;;;;23.90;14.27;;;;;;;12.85;62.82;99293.00;4875868;29;20057;-62
2022/09/12 10:06:22;;;;;;;25.15;14.63;;;;;;;12.93;62.75;99289.84;4875961;29;20480;-61
2022/09/12 10:08:49;;;;;;;20.08;13.43;;;;;;;13.05;62.02;99295.00;4877931;29;20056;-61
2022/09/12 10:11:14;;;;;;;23.92;14.73;;;;;;;13.12;61.26;99278.84;4878183;29;20055;-60
2022/09/12 10:13:56;;;;;;;24.00;12.63;;;;;;;13.01;61.04;99288.59;4876140;29;20057;-62
2022/09/12 10:16:22;;;;;;;19.85;13.27;;;;;;;13.04;60.93;99287.28;4876539;29;20511;-62
2022/09/12 10:18:50;;;;;;;19.63;13.02;;;;;;;13.14;60.84;99296.13;4876513;29;20136;-62
2022/09/12 10:21:20;;;;;;;20.30;13.02;;;;;;;13.19;60.23;99293.50;4876679;29;20052;-61
2022/09/12 10:23:46;;;;;;;28.80;12.80;;;;;;;13.21;59.69;99289.78;4877489;29;20197;-62
2022/09/12 10:26:14;;;;;;;19.88;12.25;;;;;;;13.29;59.75;99282.13;4876156;29;20125;-62
2022/09/12 10:28:44;;;;;;;22.63;12.70;;;;;;;13.37;59.15;99281.66;4876700;29;20100;-60
2022/09/12 10:31:16;;;;;;;18.47;11.80;;;;;;;13.47;58.60;99283.59;4873897;29;20512;-62
2022/09/12 10:33:51;;;;;;;18.95;11.57;;;;;;;13.38;58.64;99280.63;4875745;29;20091;-61
2022/09/12 10:36:18;;;;;;;19.10;12.10;;;;;;;13.53;59.01;99287.06;4875967;29;20044;-62
2022/09/12 10:38:50;;;;;;;16.85;10.70;;;;;;;13.51;58.19;99290.00;4877555;29;20105;-61
2022/09/12 10:41:16;;;;;;;19.05;11.70;;;;;;;13.55;58.28;99283.06;4876686;29;20044;-61
2022/09/12 10:43:42;;;;;;;16.48;11.35;;;;;;;13.52;58.02;99286.25;4875938;29;20404;-63
2022/09/12 10:46:13;;;;;;;19.65;11.25;;;;;;;13.66;58.06;99283.94;4877433;29;20092;-62
2022/09/12 10:48:39;;;;;;;15.15;10.63;;;;;;;13.68;57.33;99281.00;4877948;29;20068;-62
2022/09/12 10:51:04;;;;;;;20.17;11.63;;;;;;;13.78;57.39;99281.84;4876214;29;20087;-61
2022/09/12 10:53:40;;;;;;;18.20;11.40;;;;;;;13.92;57.22;99274.19;4874748;29;20081;-60
2022/09/12 10:56:14;;;;;;;16.48;10.77;;;;;;;14.01;55.74;99282.47;4875896;29;20072;-61
2022/09/12 10:59:04;;;;;;;17.05;10.10;;;;;;;13.90;55.64;99270.16;4876651;29;20144;-63
2022/09/12 11:01:35;;;;;;;18.38;10.80;;;;;;;14.08;56.15;99267.00;4877300;29;20053;-61
2022/09/12 11:04:07;;;;;;;22.35;11.02;;;;;;;14.15;55.98;99272.09;4876985;29;20499;-60
2022/09/12 11:06:48;;;;;;;20.27;10.90;;;;;;;14.16;55.75;99266.50;4877135;29;20483;-61
2022/09/12 11:09:19;;;;;;;17.77;10.60;;;;;;;14.19;55.64;99270.50;4876945;29;20049;-61
2022/09/12 11:11:50;;;;;;;19.80;10.73;;;;;;;14.00;55.96;99272.84;4876784;29;20128;-62
2022/09/12 11:15:07;;;;;;;20.00;11.75;;;;;;;14.01;55.80;99277.13;4877779;29;20072;-61
2022/09/12 11:18:08;;;;;;;16.50;10.20;;;;;;;13.96;55.83;99269.91;4880395;29;20127;-61
2022/09/12 11:20:59;;;;;;;16.92;9.77;;;;;;;14.02;55.14;99268.88;4879712;29;20045;-61
2022/09/12 11:23:47;;;;;;;14.88;9.85;;;;;;;13.78;54.53;99276.53;4880666;29;20045;-60
2022/09/12 11:26:31;;;;;;;16.13;10.10;;;;;;;13.71;55.28;99273.31;4879484;29;20534;-60
2022/09/12 11:29:21;;;;;;;14.80;9.48;;;;;;;13.81;55.13;99270.66;4879463;29;20053;-61
2022/09/12 11:32:02;;;;;;;15.77;9.73;;;;;;;13.98;54.66;99275.00;4880609;29;20076;-61
2022/09/12 11:34:58;;;;;;;14.55;9.23;;;;;;;14.12;54.30;99273.44;4880780;29;20064;-60
2022/09/12 11:37:36;;;;;;;16.75;10.20;;;;;;;14.18;54.41;99269.72;4879786;29;20076;-61
2022/09/12 11:40:21;;;;;;;21.10;11.90;;;;;;;14.11;54.87;99281.69;4880574;29;20057;-61
2022/09/12 11:42:51;;;;;;;18.30;10.45;;;;;;;14.07;55.91;99274.22;4880329;29;20041;-61
2022/09/12 11:45:35;;;;;;;16.90;10.52;;;;;;;14.04;55.64;99271.28;4863556;29;20076;-62